Time;durP1;ratioP1;P1;durP2;ratioP2;P2;SDS_P1;SDS_P2;PMS_P1;PMS_P2;Temp;Humidity;BMP_temperature;BMP_pressure;BME280_temperature;BME280_humidity;BME280_pressure;Samples;Min_cycle;Max_cycle;Signal;HPM_P1;HPM_P2
2023/04/27 00:01:39;;;;;;;6.38;3.67;;;5.80;99.90;;;;;;5043384;28;20423;-43
2023/04/27 00:04:05;;;;;;;3.60;2.78;;;5.80;99.90;;;;;;5043154;28;20029;-43
2023/04/27 00:06:34;;;;;;;3.75;2.80;;;5.70;99.90;;;;;;5042336;28;20117;-42
2023/04/27 00:08:59;;;;;;;3.13;2.65;;;5.70;99.90;;;;;;5042382;28;20499;-42
2023/04/27 00:11:25;;;;;;;4.55;3.25;;;5.70;99.90;;;;;;5042162;28;20029;-43
2023/04/27 00:13:50;;;;;;;4.93;3.10;;;5.70;99.90;;;;;;5041294;28;20028;-44
2023/04/27 00:16:16;;;;;;;5.22;3.03;;;5.70;99.90;;;;;;5042437;28;20396;-43
2023/04/27 00:18:42;;;;;;;4.63;3.30;;;5.60;99.90;;;;;;5042417;28;20539;-43
2023/04/27 00:21:08;;;;;;;4.65;3.10;;;5.60;99.90;;;;;;5041146;28;20100;-43
2023/04/27 00:23:34;;;;;;;3.28;2.90;;;5.60;99.90;;;;;;5042438;28;20036;-43
2023/04/27 00:26:00;;;;;;;6.38;3.28;;;5.50;99.90;;;;;;5041656;28;20035;-43
2023/04/27 00:28:25;;;;;;;5.72;3.00;;;5.50;99.90;;;;;;5042425;28;20562;-43
2023/04/27 00:30:53;;;;;;;6.40;3.20;;;5.50;99.90;;;;;;5042216;28;20124;-44
2023/04/27 00:33:19;;;;;;;3.60;2.67;;;5.40;99.90;;;;;;5042034;28;20032;-43
2023/04/27 00:35:47;;;;;;;4.78;3.03;;;5.40;99.90;;;;;;5041842;28;20106;-44
2023/04/27 00:38:13;;;;;;;5.32;2.90;;;5.40;99.90;;;;;;5042398;28;20040;-43
2023/04/27 00:40:39;;;;;;;6.22;3.10;;;5.40;99.90;;;;;;5040464;28;20745;-43
2023/04/27 00:43:04;;;;;;;4.63;2.92;;;5.40;99.90;;;;;;5040903;28;20072;-43
2023/04/27 00:45:30;;;;;;;3.08;2.78;;;5.30;99.90;;;;;;5041063;28;20461;-43
2023/04/27 00:47:57;;;;;;;3.88;2.83;;;5.30;99.90;;;;;;5040488;28;20052;-43
2023/04/27 00:50:28;;;;;;;4.18;2.92;;;5.30;99.90;;;;;;5041404;28;20033;-43
2023/04/27 00:52:55;;;;;;;5.23;2.90;;;5.30;99.90;;;;;;5041807;28;20032;-43
2023/04/27 00:55:21;;;;;;;4.60;2.97;;;5.20;99.90;;;;;;5040859;28;20063;-45
2023/04/27 00:57:47;;;;;;;6.38;3.13;;;5.20;99.90;;;;;;5041734;28;20017;-43
2023/04/27 01:00:13;;;;;;;5.85;3.13;;;5.20;99.90;;;;;;5042150;28;20039;-42
2023/04/27 01:02:40;;;;;;;5.65;3.25;;;5.20;99.90;;;;;;5040209;28;20025;-43
2023/04/27 01:05:07;;;;;;;5.03;2.65;;;5.10;99.90;;;;;;5041326;28;20107;-44
2023/04/27 01:07:35;;;;;;;4.05;2.78;;;5.10;99.90;;;;;;5040074;28;20495;-42
2023/04/27 01:10:01;;;;;;;3.95;2.70;;;5.10;99.90;;;;;;5040358;28;20033;-43
2023/04/27 01:12:27;;;;;;;4.72;3.28;;;5.10;99.90;;;;;;5040616;28;20392;-43
2023/04/27 01:14:52;;;;;;;9.02;3.22;;;5.00;99.90;;;;;;5041508;28;20060;-43
2023/04/27 01:17:18;;;;;;;3.55;2.47;;;5.00;99.90;;;;;;5040983;28;20067;-43
2023/04/27 01:19:54;;;;;;;4.13;2.60;;;5.00;99.90;;;;;;5041191;28;20024;-43
2023/04/27 01:22:20;;;;;;;4.20;2.60;;;5.00;99.90;;;;;;5040869;28;20385;-44
2023/04/27 01:24:46;;;;;;;2.88;2.53;;;4.90;99.90;;;;;;5040879;28;20102;-43
2023/04/27 01:27:12;;;;;;;3.15;2.70;;;4.90;99.90;;;;;;5041275;28;20025;-43
2023/04/27 01:29:38;;;;;;;4.38;2.88;;;4.90;99.90;;;;;;5040598;28;20148;-43
2023/04/27 01:32:06;;;;;;;3.35;2.33;;;4.90;99.90;;;;;;5041122;28;20154;-42
2023/04/27 01:34:32;;;;;;;5.65;2.40;;;4.90;99.90;;;;;;5040586;28;20032;-43
2023/04/27 01:36:57;;;;;;;3.78;2.20;;;4.90;99.90;;;;;;5040396;28;20025;-43
2023/04/27 01:39:23;;;;;;;3.65;2.35;;;4.90;99.90;;;;;;5041239;28;20021;-43
2023/04/27 01:41:48;;;;;;;3.70;2.30;;;4.90;99.90;;;;;;5041585;28;20063;-43
2023/04/27 01:44:14;;;;;;;3.92;2.45;;;4.90;99.90;;;;;;5040690;28;20033;-43
2023/04/27 01:46:39;;;;;;;4.05;2.55;;;4.90;99.90;;;;;;5040545;28;20058;-43
2023/04/27 01:49:05;;;;;;;4.63;2.30;;;4.80;99.90;;;;;;5040729;28;20037;-44
2023/04/27 01:51:31;;;;;;;3.85;2.25;;;4.80;99.90;;;;;;5039279;28;20357;-43
2023/04/27 01:53:57;;;;;;;4.07;2.70;;;4.80;99.90;;;;;;5040030;28;20033;-43
2023/04/27 01:56:23;;;;;;;2.90;2.17;;;4.80;99.90;;;;;;5040938;28;20028;-43
2023/04/27 01:58:48;;;;;;;5.15;2.55;;;4.80;99.90;;;;;;5039602;28;20029;-44
2023/04/27 02:01:14;;;;;;;2.90;2.50;;;4.80;99.90;;;;;;5041853;28;20026;-44
2023/04/27 02:03:40;;;;;;;4.25;2.50;;;4.70;99.90;;;;;;5039905;28;20029;-43
2023/04/27 02:06:06;;;;;;;4.95;2.88;;;4.80;99.90;;;;;;5039925;28;20048;-44
2023/04/27 02:08:32;;;;;;;4.07;3.05;;;4.70;99.90;;;;;;5040543;28;20499;-43
2023/04/27 02:10:58;;;;;;;7.55;2.78;;;4.70;99.90;;;;;;5040709;28;20025;-42
2023/04/27 02:13:23;;;;;;;6.40;3.67;;;4.70;99.90;;;;;;5039349;28;20832;-33
2023/04/27 02:15:49;;;;;;;4.30;3.15;;;4.60;99.90;;;;;;5041575;28;20028;-35
2023/04/27 02:18:14;;;;;;;5.57;2.88;;;4.60;99.90;;;;;;5040630;28;20722;-33
2023/04/27 02:20:40;;;;;;;8.98;4.45;;;4.60;99.90;;;;;;5040220;28;20112;-33
2023/04/27 02:23:06;;;;;;;3.78;2.97;;;4.60;99.90;;;;;;5040608;28;20116;-33
2023/04/27 02:25:34;;;;;;;5.43;3.03;;;4.50;99.90;;;;;;5039887;28;20488;-33
2023/04/27 02:28:00;;;;;;;5.22;2.47;;;4.50;99.90;;;;;;5040586;28;20045;-32
2023/04/27 02:30:25;;;;;;;3.20;2.65;;;4.50;99.90;;;;;;5039358;28;20151;-33
2023/04/27 02:32:51;;;;;;;3.10;2.63;;;4.40;99.90;;;;;;5039971;28;20053;-32
2023/04/27 02:35:20;;;;;;;3.92;2.50;;;4.40;99.90;;;;;;5040739;28;20079;-33
2023/04/27 02:37:45;;;;;;;4.75;2.60;;;4.40;99.90;;;;;;5040502;28;20021;-33
2023/04/27 02:40:11;;;;;;;4.03;2.60;;;4.40;99.90;;;;;;5039527;28;20575;-32
2023/04/27 02:42:37;;;;;;;3.88;2.40;;;4.40;99.90;;;;;;5040340;28;20017;-34
2023/04/27 02:45:05;;;;;;;5.35;2.60;;;4.40;99.90;;;;;;5039776;28;20507;-33
2023/04/27 02:47:31;;;;;;;3.63;2.33;;;4.40;99.90;;;;;;5041821;28;20610;-33
2023/04/27 02:49:58;;;;;;;3.78;2.50;;;4.40;99.90;;;;;;5043828;28;20022;-33
2023/04/27 02:52:23;;;;;;;5.30;2.30;;;4.30;99.90;;;;;;5044267;28;20439;-32
2023/04/27 02:54:49;;;;;;;4.38;2.75;;;4.30;99.90;;;;;;5042945;28;20616;-33
2023/04/27 02:57:14;;;;;;;3.83;2.25;;;4.30;99.90;;;;;;5044641;28;20037;-32
2023/04/27 02:59:40;;;;;;;3.95;2.38;;;4.30;99.90;;;;;;5042753;28;20071;-45
2023/04/27 03:02:06;;;;;;;3.10;2.70;;;4.30;99.90;;;;;;5043065;28;20017;-43
2023/04/27 03:04:32;;;;;;;3.78;2.88;;;4.20;99.90;;;;;;5042514;28;20094;-44
2023/04/27 03:07:00;;;;;;;5.97;2.35;;;4.20;99.90;;;;;;5042830;28;20457;-44
2023/04/27 03:09:26;;;;;;;5.57;2.65;;;4.20;99.90;;;;;;5043050;28;20036;-43
2023/04/27 03:11:51;;;;;;;3.80;2.53;;;4.20;99.90;;;;;;5043880;28;20082;-43
2023/04/27 03:14:17;;;;;;;4.05;2.50;;;4.20;99.90;;;;;;5043520;28;20067;-43
2023/04/27 03:16:42;;;;;;;3.60;2.30;;;4.10;99.90;;;;;;5042348;28;20044;-43
2023/04/27 03:19:08;;;;;;;2.92;2.20;;;4.10;99.90;;;;;;5043366;28;20035;-43
2023/04/27 03:21:33;;;;;;;3.88;2.25;;;4.10;99.90;;;;;;5042366;28;20033;-42
2023/04/27 03:23:59;;;;;;;3.38;2.55;;;4.00;99.90;;;;;;5042522;28;20037;-42
2023/04/27 03:26:25;;;;;;;3.70;2.30;;;4.00;99.90;;;;;;5043175;28;20047;-44
2023/04/27 03:28:50;;;;;;;2.50;2.30;;;4.00;99.90;;;;;;5042599;28;20428;-42
2023/04/27 03:31:16;;;;;;;3.20;2.55;;;4.00;99.90;;;;;;5043895;28;20028;-43
2023/04/27 03:33:41;;;;;;;4.47;2.55;;;4.00;99.90;;;;;;5043955;28;20032;-44
2023/04/27 03:36:09;;;;;;;6.35;2.75;;;4.00;99.90;;;;;;5042960;28;20468;-43
2023/04/27 03:38:35;;;;;;;2.72;2.35;;;4.00;99.90;;;;;;5043506;28;20102;-42
2023/04/27 03:41:01;;;;;;;2.92;2.40;;;4.00;99.90;;;;;;5042503;28;20020;-43
2023/04/27 03:43:26;;;;;;;5.55;2.60;;;4.00;99.90;;;;;;5041444;28;20025;-43
2023/04/27 03:45:52;;;;;;;2.97;2.20;;;3.90;99.90;;;;;;5042484;28;20173;-43
2023/04/27 03:48:18;;;;;;;2.72;2.38;;;3.90;99.90;;;;;;5042460;28;20439;-43
2023/04/27 03:50:45;;;;;;;3.53;2.38;;;3.90;99.90;;;;;;5042474;28;20021;-43
2023/04/27 03:53:11;;;;;;;3.20;2.45;;;3.90;99.90;;;;;;5042141;28;20025;-43
2023/04/27 03:55:38;;;;;;;6.50;2.55;;;3.90;99.90;;;;;;5042713;28;20563;-43
2023/04/27 03:58:04;;;;;;;4.32;2.72;;;3.90;99.90;;;;;;5041580;28;20044;-42
2023/04/27 04:00:30;;;;;;;4.28;2.92;;;3.80;99.90;;;;;;5042567;28;20033;-44
2023/04/27 04:02:56;;;;;;;4.47;3.08;;;3.80;99.90;;;;;;5042947;28;20039;-42
2023/04/27 04:05:25;;;;;;;2.65;2.35;;;3.80;99.90;;;;;;5042409;28;20028;-42
2023/04/27 04:07:50;;;;;;;4.05;2.65;;;3.80;99.90;;;;;;5041184;28;20040;-45
2023/04/27 04:10:16;;;;;;;4.07;2.80;;;3.80;99.90;;;;;;5041260;28;20032;-44
2023/04/27 04:12:41;;;;;;;3.10;2.58;;;3.70;99.90;;;;;;5040265;28;20575;-43
2023/04/27 04:15:07;;;;;;;3.05;2.45;;;3.70;99.90;;;;;;5041340;28;20035;-44
2023/04/27 04:17:33;;;;;;;4.88;2.50;;;3.70;99.90;;;;;;5041622;28;20124;-44
2023/04/27 04:20:00;;;;;;;3.28;2.55;;;3.80;99.90;;;;;;5041396;28;20374;-42
2023/04/27 04:22:25;;;;;;;3.55;2.58;;;3.80;99.90;;;;;;5042142;28;20028;-43
2023/04/27 04:24:51;;;;;;;3.60;2.55;;;3.80;99.90;;;;;;5031557;28;20033;-43
2023/04/27 04:27:17;;;;;;;3.08;2.47;;;3.80;99.90;;;;;;5041719;28;20076;-43
2023/04/27 04:29:42;;;;;;;3.97;2.63;;;3.80;99.90;;;;;;5041830;28;20036;-42
2023/04/27 04:32:08;;;;;;;3.58;2.70;;;3.80;99.90;;;;;;5040836;28;20064;-42
2023/04/27 04:34:36;;;;;;;4.47;2.17;;;3.80;99.90;;;;;;5041258;28;20028;-42
2023/04/27 04:37:03;;;;;;;4.78;2.47;;;3.90;99.90;;;;;;5041800;28;20036;-44
2023/04/27 04:39:32;;;;;;;2.90;2.47;;;3.90;99.90;;;;;;5041564;28;20033;-43
2023/04/27 04:41:58;;;;;;;10.00;2.97;;;3.80;99.90;;;;;;5042882;28;20029;-42
2023/04/27 04:44:23;;;;;;;3.17;2.60;;;3.80;99.90;;;;;;5042288;28;20029;-43
2023/04/27 04:46:50;;;;;;;4.47;3.25;;;3.90;99.90;;;;;;5040559;28;20125;-42
2023/04/27 04:49:15;;;;;;;3.47;2.67;;;3.90;99.90;;;;;;5041124;28;20087;-42
2023/04/27 04:51:42;;;;;;;3.10;2.78;;;3.90;99.90;;;;;;5040886;28;20485;-43
2023/04/27 04:54:08;;;;;;;5.50;3.30;;;3.90;99.90;;;;;;5040730;28;20024;-42
2023/04/27 04:56:34;;;;;;;4.65;3.20;;;3.90;99.90;;;;;;5041073;28;20110;-45
2023/04/27 04:59:00;;;;;;;4.50;3.20;;;3.90;99.90;;;;;;5041299;28;20037;-42
2023/04/27 05:01:26;;;;;;;6.25;3.50;;;3.90;99.90;;;;;;5040814;28;20094;-43
2023/04/27 05:03:51;;;;;;;5.68;3.17;;;3.90;99.90;;;;;;5041015;28;20029;-44
2023/04/27 05:06:17;;;;;;;4.40;3.20;;;3.90;99.90;;;;;;5042046;28;20438;-43
2023/04/27 05:08:43;;;;;;;5.30;3.67;;;4.00;99.90;;;;;;5040522;28;20115;-43
2023/04/27 05:11:08;;;;;;;5.10;4.07;;;4.00;99.90;;;;;;5040825;28;20575;-43
2023/04/27 05:13:34;;;;;;;6.05;3.65;;;4.00;99.90;;;;;;5041152;28;20758;-43
2023/04/27 05:16:06;;;;;;;4.85;3.58;;;4.00;99.90;;;;;;5040423;28;20032;-42
2023/04/27 05:18:32;;;;;;;4.32;3.63;;;4.10;99.90;;;;;;5039855;28;20021;-43
2023/04/27 05:20:58;;;;;;;7.40;4.47;;;4.10;99.90;;;;;;5039735;28;20032;-43
2023/04/27 05:23:24;;;;;;;6.03;3.92;;;4.10;99.90;;;;;;5039490;28;20104;-43
2023/04/27 05:25:49;;;;;;;5.85;3.70;;;4.20;99.90;;;;;;5040036;28;20098;-43
2023/04/27 05:28:15;;;;;;;6.25;4.30;;;4.30;99.90;;;;;;5039895;28;20491;-42
2023/04/27 05:30:41;;;;;;;6.32;4.45;;;4.30;99.90;;;;;;5040442;28;20025;-43
2023/04/27 05:33:06;;;;;;;7.90;4.50;;;4.40;99.90;;;;;;5040624;28;20068;-43
2023/04/27 05:35:35;;;;;;;7.32;4.30;;;4.40;99.90;;;;;;5040476;28;20811;-43
2023/04/27 05:38:02;;;;;;;7.30;4.43;;;4.50;99.90;;;;;;5040590;28;20056;-42
2023/04/27 05:40:28;;;;;;;6.90;4.22;;;4.50;99.90;;;;;;5039953;28;20644;-44
2023/04/27 05:42:53;;;;;;;6.13;4.20;;;4.60;99.90;;;;;;5040536;28;20021;-42
2023/04/27 05:45:20;;;;;;;7.00;4.82;;;4.70;99.90;;;;;;5040735;28;20073;-43
2023/04/27 05:47:46;;;;;;;7.57;4.47;;;4.70;99.90;;;;;;5040429;28;20044;-43
2023/04/27 05:50:11;;;;;;;6.63;4.47;;;4.80;99.90;;;;;;5040798;28;20071;-43
2023/04/27 05:52:40;;;;;;;7.40;4.45;;;4.80;99.90;;;;;;5041129;28;20128;-42
2023/04/27 05:55:07;;;;;;;6.97;4.38;;;4.80;99.90;;;;;;5041121;28;20116;-43
2023/04/27 05:57:32;;;;;;;6.75;4.45;;;4.90;99.90;;;;;;5037267;28;20098;-44
2023/04/27 05:59:59;;;;;;;7.55;4.53;;;4.90;99.90;;;;;;5040733;28;20055;-43
2023/04/27 06:02:25;;;;;;;5.57;4.18;;;4.90;99.90;;;;;;5040162;28;20036;-43
2023/04/27 06:04:51;;;;;;;8.05;4.60;;;5.00;99.90;;;;;;5040865;28;20029;-44
2023/04/27 06:07:16;;;;;;;6.95;4.25;;;5.00;99.90;;;;;;5041240;28;20182;-43
2023/04/27 06:09:42;;;;;;;8.30;4.25;;;5.00;99.90;;;;;;5040672;28;20688;-42
2023/04/27 06:12:08;;;;;;;8.25;4.57;;;5.10;99.90;;;;;;5040478;28;20056;-42
2023/04/27 06:14:35;;;;;;;6.38;4.38;;;5.10;99.90;;;;;;5040613;28;20473;-43
2023/04/27 06:17:02;;;;;;;6.53;5.35;;;5.20;99.90;;;;;;5040726;28;20024;-43
2023/04/27 06:19:28;;;;;;;6.95;4.70;;;5.20;99.90;;;;;;5039912;28;20797;-44
2023/04/27 06:21:54;;;;;;;5.47;4.90;;;5.30;99.90;;;;;;5043173;28;20104;-42
2023/04/27 06:24:21;;;;;;;5.75;4.45;;;5.30;99.90;;;;;;5044370;28;20107;-42
2023/04/27 06:26:47;;;;;;;5.50;4.35;;;5.40;99.90;;;;;;5042580;28;20437;-42
2023/04/27 06:29:13;;;;;;;6.70;4.85;;;5.40;99.90;;;;;;5043857;28;20664;-47
2023/04/27 06:31:41;;;;;;;9.52;4.90;;;5.50;99.90;;;;;;5042367;28;20021;-44
2023/04/27 06:34:07;;;;;;;6.65;4.88;;;5.50;99.90;;;;;;5043225;28;20033;-43
2023/04/27 06:36:32;;;;;;;6.28;4.05;;;5.60;99.90;;;;;;5044032;28;20021;-44
2023/04/27 06:38:58;;;;;;;6.18;4.40;;;5.60;99.90;;;;;;5043139;28;20025;-42
2023/04/27 06:41:25;;;;;;;4.75;3.75;;;5.70;99.90;;;;;;5043704;28;20032;-43
2023/04/27 06:43:51;;;;;;;4.93;3.50;;;5.80;99.90;;;;;;5044080;28;20098;-42
2023/04/27 06:46:17;;;;;;;5.13;4.03;;;5.80;99.90;;;;;;5043292;28;20456;-43
2023/04/27 06:48:42;;;;;;;5.82;4.00;;;5.80;99.90;;;;;;5043309;28;20032;-43
2023/04/27 06:51:08;;;;;;;3.92;3.40;;;5.90;99.90;;;;;;5044076;28;20024;-43
2023/04/27 06:53:33;;;;;;;4.45;3.28;;;6.00;99.90;;;;;;5043444;28;20743;-44
2023/04/27 06:55:59;;;;;;;4.18;3.08;;;6.00;99.90;;;;;;5043532;28;20033;-43
2023/04/27 06:58:26;;;;;;;4.75;3.00;;;6.10;99.90;;;;;;5044388;28;20414;-44
2023/04/27 07:00:52;;;;;;;5.72;2.78;;;6.20;99.90;;;;;;5043278;28;20033;-43
2023/04/27 07:03:17;;;;;;;5.32;2.85;;;6.20;99.90;;;;;;5043934;28;20033;-43
2023/04/27 07:05:43;;;;;;;5.40;2.45;;;6.30;99.90;;;;;;5043774;28;20025;-43
2023/04/27 07:08:09;;;;;;;5.28;2.60;;;6.30;99.90;;;;;;5042581;28;20427;-43
2023/04/27 07:10:34;;;;;;;4.28;2.50;;;6.40;99.90;;;;;;5043509;28;20024;-42
2023/04/27 07:13:00;;;;;;;2.88;2.35;;;6.40;99.90;;;;;;5042933;28;20058;-44
2023/04/27 07:15:26;;;;;;;3.95;2.60;;;6.50;99.90;;;;;;5042532;28;20029;-42
2023/04/27 07:17:55;;;;;;;4.65;2.78;;;6.60;99.90;;;;;;5043151;28;20563;-43
2023/04/27 07:20:21;;;;;;;2.50;2.30;;;6.60;99.90;;;;;;5043487;28;20028;-43
2023/04/27 07:22:46;;;;;;;2.97;2.67;;;6.70;99.90;;;;;;5041693;28;20033;-43
2023/04/27 07:25:12;;;;;;;6.22;2.90;;;6.80;99.90;;;;;;5043243;28;20025;-43
2023/04/27 07:27:38;;;;;;;3.90;2.25;;;6.80;99.90;;;;;;5043125;28;20025;-42
2023/04/27 07:30:08;;;;;;;4.70;2.55;;;6.90;99.90;;;;;;5042820;28;20044;-43
2023/04/27 07:32:33;;;;;;;4.38;2.28;;;7.00;99.90;;;;;;5042614;28;20036;-43
2023/04/27 07:34:59;;;;;;;4.65;2.58;;;7.10;99.90;;;;;;5041821;28;20033;-43
2023/04/27 07:37:25;;;;;;;4.20;2.30;;;7.10;99.90;;;;;;5042171;28;20033;-44
2023/04/27 07:39:52;;;;;;;2.15;1.95;;;7.20;99.90;;;;;;5042030;28;20487;-42
2023/04/27 07:42:18;;;;;;;3.97;2.22;;;7.30;99.90;;;;;;5041850;28;20057;-42
2023/04/27 07:44:49;;;;;;;3.63;2.55;;;7.30;99.90;;;;;;5042156;28;20028;-43
2023/04/27 07:47:15;;;;;;;2.92;2.10;;;7.40;99.90;;;;;;5042380;28;20090;-43
2023/04/27 07:49:40;;;;;;;3.13;2.17;;;7.40;99.90;;;;;;5041308;28;20482;-42
2023/04/27 07:52:06;;;;;;;2.83;2.00;;;7.50;99.90;;;;;;5042159;28;20496;-42
2023/04/27 07:54:31;;;;;;;3.60;2.08;;;7.60;99.90;;;;;;5042895;28;20107;-43
2023/04/27 07:56:57;;;;;;;5.43;2.38;;;7.60;99.90;;;;;;5042361;28;20033;-43
2023/04/27 07:59:22;;;;;;;2.70;2.08;;;7.70;99.90;;;;;;5042571;28;20017;-44
2023/04/27 08:01:51;;;;;;;3.88;2.40;;;7.80;99.90;;;;;;5042874;28;20029;-43
2023/04/27 08:04:26;;;;;;;3.47;2.40;;;7.90;99.90;;;;;;5041748;28;20044;-43
2023/04/27 08:06:51;;;;;;;3.85;2.33;;;8.00;99.90;;;;;;5039040;28;20031;-42
2023/04/27 08:09:17;;;;;;;4.68;2.50;;;8.10;99.90;;;;;;5043183;28;20033;-42
2023/04/27 08:11:45;;;;;;;4.65;2.60;;;8.10;99.90;;;;;;5041276;28;20025;-44
2023/04/27 08:14:12;;;;;;;5.68;2.40;;;8.20;99.90;;;;;;5042422;28;20778;-43
2023/04/27 08:16:41;;;;;;;3.45;2.20;;;8.30;99.90;;;;;;5042300;28;20481;-44
2023/04/27 08:19:08;;;;;;;3.92;2.13;;;8.40;99.90;;;;;;5041101;28;20552;-43
2023/04/27 08:21:37;;;;;;;3.00;2.47;;;8.40;99.90;;;;;;5042658;28;20037;-43
2023/04/27 08:24:04;;;;;;;4.35;2.40;;;8.50;99.90;;;;;;5041624;28;20021;-43
2023/04/27 08:26:30;;;;;;;2.58;2.13;;;8.50;99.90;;;;;;5041607;28;20122;-43
2023/04/27 08:28:56;;;;;;;3.28;2.58;;;8.60;99.90;;;;;;5042199;28;20037;-44
2023/04/27 08:31:23;;;;;;;3.00;2.33;;;8.70;99.90;;;;;;5041405;28;20037;-43
2023/04/27 08:33:49;;;;;;;4.72;2.50;;;8.80;99.90;;;;;;5042312;28;20039;-43
2023/04/27 08:36:15;;;;;;;2.42;2.20;;;8.90;99.90;;;;;;5042610;28;20033;-43
2023/04/27 08:38:40;;;;;;;3.78;2.33;;;9.00;99.90;;;;;;5041520;28;20382;-42
2023/04/27 08:41:06;;;;;;;2.58;2.08;;;9.10;99.90;;;;;;5041384;28;20481;-42
2023/04/27 08:43:35;;;;;;;4.13;1.80;;;9.20;99.90;;;;;;5041841;28;20032;-43
2023/04/27 08:46:01;;;;;;;3.67;2.40;;;9.20;99.90;;;;;;5040367;28;20142;-44
2023/04/27 08:48:27;;;;;;;3.90;2.05;;;9.30;99.90;;;;;;5041002;28;20036;-44
2023/04/27 08:50:55;;;;;;;2.42;2.22;;;9.30;99.90;;;;;;5040993;28;20029;-43
2023/04/27 08:53:22;;;;;;;3.45;2.22;;;9.40;99.90;;;;;;5040588;28;20028;-42
2023/04/27 08:55:49;;;;;;;2.17;1.83;;;9.40;99.90;;;;;;5041083;28;20126;-43
2023/04/27 08:58:14;;;;;;;2.72;2.10;;;9.50;99.90;;;;;;5041916;28;20029;-43
2023/04/27 09:00:41;;;;;;;3.17;1.80;;;9.60;99.90;;;;;;5040159;28;20025;-43
2023/04/27 09:03:18;;;;;;;4.55;2.30;;;9.70;99.90;;;;;;5041403;28;20114;-44
2023/04/27 09:05:47;;;;;;;2.70;2.20;;;9.80;99.90;;;;;;5041219;28;20433;-44
2023/04/27 09:08:13;;;;;;;3.95;2.22;;;9.80;99.90;;;;;;5040198;28;20041;-43
2023/04/27 09:10:47;;;;;;;2.65;2.03;;;9.80;99.90;;;;;;5042011;28;20043;-44
2023/04/27 09:13:13;;;;;;;2.75;2.30;;;9.90;99.90;;;;;;5040439;28;20036;-43
2023/04/27 09:15:51;;;;;;;4.28;2.10;;;10.00;99.90;;;;;;5040436;28;20441;-43
2023/04/27 09:18:23;;;;;;;3.28;2.55;;;10.10;99.90;;;;;;5041115;28;20056;-44
2023/04/27 09:20:50;;;;;;;4.90;2.50;;;10.10;99.90;;;;;;5040147;28;20532;-43
2023/04/27 09:23:26;;;;;;;4.78;2.45;;;10.10;99.90;;;;;;5041376;28;20147;-43
2023/04/27 09:25:53;;;;;;;4.80;2.63;;;10.10;99.90;;;;;;5041143;28;20037;-43
2023/04/27 09:28:19;;;;;;;4.38;1.95;;;10.20;99.90;;;;;;5040013;28;20048;-44
2023/04/27 09:30:52;;;;;;;2.95;2.17;;;10.20;99.90;;;;;;5040975;28;20036;-44
2023/04/27 09:33:22;;;;;;;3.17;1.90;;;10.30;99.90;;;;;;5041008;28;20369;-44
2023/04/27 09:35:49;;;;;;;4.82;2.22;;;10.30;99.90;;;;;;5040750;28;20028;-43
2023/04/27 09:38:18;;;;;;;3.45;2.20;;;10.30;99.90;;;;;;5040987;28;20033;-43
2023/04/27 09:40:43;;;;;;;3.63;2.60;;;10.30;99.90;;;;;;5040643;28;20036;-44
2023/04/27 09:43:09;;;;;;;4.72;2.90;;;10.40;99.90;;;;;;5040510;28;20040;-44
2023/04/27 09:45:36;;;;;;;3.92;2.70;;;10.50;99.90;;;;;;5040819;28;20089;-44
2023/04/27 09:48:03;;;;;;;3.60;2.58;;;10.50;99.90;;;;;;5040221;28;20045;-44
2023/04/27 09:50:33;;;;;;;2.80;2.45;;;10.70;99.90;;;;;;5039881;28;20091;-44
2023/04/27 09:52:59;;;;;;;2.90;2.42;;;10.80;99.90;;;;;;5039938;28;20781;-43
2023/04/27 09:55:31;;;;;;;2.28;2.08;;;10.90;99.90;;;;;;5038924;28;20029;-43
2023/04/27 09:58:20;;;;;;;3.85;2.38;;;10.90;99.90;;;;;;5039551;28;20739;-44
2023/04/27 10:01:16;;;;;;;3.80;2.38;;;11.00;99.90;;;;;;5040054;28;20029;-45
2023/04/27 10:04:24;;;;;;;3.17;2.10;;;11.00;99.90;;;;;;5039541;28;20122;-44
2023/04/27 10:06:53;;;;;;;3.42;2.05;;;11.00;99.90;;;;;;5035123;28;20033;-43
2023/04/27 10:09:25;;;;;;;3.38;2.75;;;11.10;99.90;;;;;;5040114;28;20041;-44
2023/04/27 10:11:55;;;;;;;1.92;1.83;;;11.10;99.90;;;;;;5039995;28;20409;-43
2023/04/27 10:14:22;;;;;;;2.50;2.28;;;11.10;99.90;;;;;;5040736;28;20086;-44
2023/04/27 10:16:55;;;;;;;2.75;2.40;;;11.10;99.80;;;;;;5039380;28;20136;-44
2023/04/27 10:19:23;;;;;;;3.70;2.33;;;11.20;99.70;;;;;;5040173;28;20025;-42
2023/04/27 10:22:06;;;;;;;3.88;2.35;;;11.20;99.70;;;;;;5039887;28;20111;-44
2023/04/27 10:24:45;;;;;;;3.50;2.63;;;11.30;99.50;;;;;;5039794;28;20817;-43
2023/04/27 10:27:18;;;;;;;3.58;2.83;;;11.40;99.20;;;;;;5040766;28;20033;-43
2023/04/27 10:29:45;;;;;;;3.10;2.28;;;11.50;98.60;;;;;;5040131;28;20033;-44
2023/04/27 10:32:13;;;;;;;3.45;2.70;;;11.50;98.40;;;;;;5040407;28;20107;-44
2023/04/27 10:34:40;;;;;;;3.40;2.25;;;11.40;98.30;;;;;;5040494;28;20044;-43
2023/04/27 10:37:10;;;;;;;3.30;2.30;;;11.50;98.40;;;;;;5039182;28;20462;-43
2023/04/27 10:39:41;;;;;;;3.08;2.78;;;11.50;97.80;;;;;;5039081;28;20048;-43
2023/04/27 10:42:07;;;;;;;3.58;2.42;;;11.60;98.10;;;;;;5039921;28;20426;-43
2023/04/27 10:44:34;;;;;;;2.55;2.35;;;11.70;97.40;;;;;;5039733;28;20033;-43
2023/04/27 10:47:15;;;;;;;3.45;2.72;;;11.70;97.40;;;;;;5038986;28;20048;-47
2023/04/27 10:49:41;;;;;;;3.00;2.60;;;11.80;97.10;;;;;;5040124;28;20052;-46
2023/04/27 10:52:07;;;;;;;3.22;2.63;;;11.90;96.80;;;;;;5039260;28;20848;-43
2023/04/27 10:54:32;;;;;;;2.95;2.20;;;11.90;96.70;;;;;;5040280;28;20029;-43
2023/04/27 10:57:05;;;;;;;4.07;2.60;;;11.90;96.30;;;;;;5039686;28;20025;-43
2023/04/27 10:59:31;;;;;;;3.05;2.63;;;11.90;96.40;;;;;;5039667;28;20145;-44
2023/04/27 11:01:57;;;;;;;3.67;2.65;;;11.90;96.40;;;;;;5039071;28;20025;-44
2023/04/27 11:04:22;;;;;;;4.47;3.20;;;11.90;96.30;;;;;;5038902;28;20032;-44
2023/04/27 11:06:49;;;;;;;4.03;2.70;;;12.00;96.00;;;;;;5038607;28;20069;-43
2023/04/27 11:09:25;;;;;;;4.72;2.58;;;12.00;95.70;;;;;;5042963;28;20036;-43
2023/04/27 11:11:51;;;;;;;2.65;2.40;;;11.90;95.50;;;;;;5042954;28;20031;-44
2023/04/27 11:14:20;;;;;;;2.60;2.30;;;11.90;95.50;;;;;;5042960;28;20028;-43
2023/04/27 11:16:47;;;;;;;4.18;2.50;;;11.90;95.50;;;;;;5042937;28;20025;-44
2023/04/27 11:19:13;;;;;;;5.93;2.83;;;11.90;95.50;;;;;;5043908;28;20571;-43
2023/04/27 11:21:38;;;;;;;3.92;2.58;;;11.90;95.00;;;;;;5043493;28;20040;-43
2023/04/27 11:24:08;;;;;;;3.58;2.58;;;12.00;95.00;;;;;;5043356;28;20029;-44
2023/04/27 11:26:34;;;;;;;3.35;2.58;;;12.00;94.90;;;;;;5042446;28;20028;-44
2023/04/27 11:29:12;;;;;;;3.65;2.63;;;12.10;94.60;;;;;;5042904;28;20184;-43
2023/04/27 11:31:50;;;;;;;4.32;3.30;;;12.10;94.60;;;;;;5042877;28;20032;-43
2023/04/27 11:34:16;;;;;;;2.92;2.63;;;12.20;94.20;;;;;;5032915;28;21027;-44
2023/04/27 11:36:42;;;;;;;3.13;2.80;;;12.30;94.30;;;;;;5043031;28;20100;-43
2023/04/27 11:39:08;;;;;;;2.88;2.65;;;12.30;94.30;;;;;;5043060;28;20472;-43
2023/04/27 11:41:35;;;;;;;4.00;2.88;;;12.30;94.30;;;;;;5042549;28;20128;-43
2023/04/27 11:44:08;;;;;;;4.85;2.92;;;12.30;94.20;;;;;;5043482;28;20029;-44
2023/04/27 11:46:35;;;;;;;3.22;2.45;;;12.20;94.20;;;;;;5042252;28;20173;-42
2023/04/27 11:49:05;;;;;;;4.32;2.88;;;12.30;94.30;;;;;;5041490;28;20043;-44
2023/04/27 11:51:32;;;;;;;4.18;3.25;;;12.30;94.30;;;;;;5043286;28;20029;-43
2023/04/27 11:54:06;;;;;;;3.05;2.72;;;12.40;94.20;;;;;;5042719;28;20053;-43
2023/04/27 11:56:40;;;;;;;3.78;3.00;;;12.40;94.00;;;;;;5042195;28;20095;-43
2023/04/27 11:59:20;;;;;;;6.57;3.08;;;12.40;93.60;;;;;;5042477;28;20144;-44
2023/04/27 12:01:46;;;;;;;4.82;3.20;;;12.50;93.70;;;;;;5044895;28;20021;-43
2023/04/27 12:04:11;;;;;;;2.75;2.55;;;12.60;93.70;;;;;;5055894;28;20769;-42
2023/04/27 12:06:37;;;;;;;6.00;3.30;;;12.70;93.50;;;;;;5042707;28;20032;-44
2023/04/27 12:09:04;;;;;;;2.85;2.58;;;12.70;93.50;;;;;;5042051;28;20037;-43
2023/04/27 12:11:29;;;;;;;5.30;3.38;;;12.80;93.20;;;;;;5040947;28;20052;-43
2023/04/27 12:13:56;;;;;;;5.20;2.95;;;12.80;93.20;;;;;;5041348;28;20128;-42
2023/04/27 12:16:22;;;;;;;4.63;3.70;;;12.90;92.90;;;;;;5040782;28;20743;-45
2023/04/27 12:18:49;;;;;;;4.90;3.40;;;13.00;92.30;;;;;;5040931;28;20016;-44
2023/04/27 12:21:15;;;;;;;5.60;3.13;;;13.00;91.70;;;;;;5042707;28;20028;-44
2023/04/27 12:23:40;;;;;;;4.47;3.28;;;13.00;91.60;;;;;;5041530;28;20025;-42
2023/04/27 12:26:06;;;;;;;5.93;3.40;;;13.00;91.30;;;;;;5042554;28;20028;-44
2023/04/27 12:28:32;;;;;;;3.15;2.85;;;13.00;91.10;;;;;;5042756;28;20497;-44
2023/04/27 12:30:57;;;;;;;3.63;2.70;;;13.00;90.90;;;;;;5041613;28;20028;-44
2023/04/27 12:33:23;;;;;;;2.90;2.70;;;13.00;90.80;;;;;;5041809;28;20025;-43
2023/04/27 12:35:48;;;;;;;4.95;3.40;;;13.00;90.80;;;;;;5041982;28;20028;-44
2023/04/27 12:38:14;;;;;;;3.88;2.70;;;13.10;90.70;;;;;;5041596;28;20104;-44
2023/04/27 12:40:40;;;;;;;3.25;2.97;;;13.20;90.70;;;;;;5041833;28;20380;-42
2023/04/27 12:43:07;;;;;;;4.25;2.78;;;13.20;90.50;;;;;;5042571;28;20385;-43
2023/04/27 12:45:32;;;;;;;2.42;2.22;;;13.20;90.30;;;;;;5041029;28;20036;-43
2023/04/27 12:47:58;;;;;;;3.30;2.90;;;13.30;90.10;;;;;;5041854;28;20049;-44
2023/04/27 12:50:23;;;;;;;3.63;2.42;;;13.30;90.00;;;;;;5041763;28;20484;-43
2023/04/27 12:52:50;;;;;;;3.92;2.85;;;13.40;89.40;;;;;;5041245;28;20472;-43
2023/04/27 12:55:15;;;;;;;4.75;2.90;;;13.40;89.10;;;;;;5041776;28;20476;-43